<?xml version="1.0" encoding="UTF-8" standalone="no" ?>
<gpx xmlns="http://www.topografix.com/GPX/1/1" xmlns:xsi="http://www.w3.org/2001/XMLSchema-instance" xsi:schemaLocation="http://www.topografix.com/GPX/1/1 http://www.topografix.com/GPX/1/1/gpx.xsd" version="1.1" creator="VisuGPX - https://www.visugpx.com">
  <metadata>
    <name>35KM-RAPIDO</name>
  </metadata>
  <trk>
    <name><![CDATA[35KM-RAPIDO_1]]></name>
    <trkseg>
      <trkpt lat="45.85213" lon="4.61094">
        <ele>299</ele>
        <time>2021-10-19T10:34:29Z</time>
      </trkpt>
      <trkpt lat="45.85015" lon="4.61115">
        <ele>291</ele>
        <time>2021-10-19T10:35:15Z</time>
      </trkpt>
      <trkpt lat="45.84973" lon="4.61456">
        <ele>287</ele>
        <time>2021-10-19T10:36:12Z</time>
      </trkpt>
      <trkpt lat="45.85158" lon="4.61504">
        <ele>277</ele>
        <time>2021-10-19T10:36:56Z</time>
      </trkpt>
      <trkpt lat="45.85322" lon="4.61511">
        <ele>285</ele>
        <time>2021-10-19T10:37:34Z</time>
      </trkpt>
      <trkpt lat="45.85301" lon="4.61552">
        <ele>283</ele>
        <time>2021-10-19T10:37:42Z</time>
      </trkpt>
      <trkpt lat="45.85311" lon="4.61646">
        <ele>283</ele>
        <time>2021-10-19T10:37:58Z</time>
      </trkpt>
      <trkpt lat="45.85298" lon="4.62057">
        <ele>279</ele>
        <time>2021-10-19T10:39:05Z</time>
      </trkpt>
      <trkpt lat="45.85322" lon="4.62221">
        <ele>283</ele>
        <time>2021-10-19T10:39:32Z</time>
      </trkpt>
      <trkpt lat="45.8529" lon="4.62463">
        <ele>280</ele>
        <time>2021-10-19T10:40:12Z</time>
      </trkpt>
      <trkpt lat="45.85225" lon="4.62382">
        <ele>271</ele>
        <time>2021-10-19T10:40:32Z</time>
      </trkpt>
      <trkpt lat="45.85092" lon="4.62357">
        <ele>257</ele>
        <time>2021-10-19T10:41:03Z</time>
      </trkpt>
      <trkpt lat="45.85045" lon="4.62512">
        <ele>253</ele>
        <time>2021-10-19T10:41:31Z</time>
      </trkpt>
      <trkpt lat="45.84995" lon="4.62529">
        <ele>251</ele>
        <time>2021-10-19T10:41:43Z</time>
      </trkpt>
      <trkpt lat="45.84909" lon="4.62522">
        <ele>254</ele>
        <time>2021-10-19T10:42:03Z</time>
      </trkpt>
      <trkpt lat="45.84823" lon="4.62477">
        <ele>267</ele>
        <time>2021-10-19T10:42:24Z</time>
      </trkpt>
      <trkpt lat="45.84809" lon="4.62522">
        <ele>266</ele>
        <time>2021-10-19T10:42:32Z</time>
      </trkpt>
      <trkpt lat="45.8482" lon="4.62604">
        <ele>258</ele>
        <time>2021-10-19T10:42:46Z</time>
      </trkpt>
      <trkpt lat="45.84787" lon="4.62846">
        <ele>243</ele>
        <time>2021-10-19T10:43:26Z</time>
      </trkpt>
      <trkpt lat="45.84698" lon="4.62966">
        <ele>241</ele>
        <time>2021-10-19T10:43:55Z</time>
      </trkpt>
      <trkpt lat="45.84758" lon="4.63233">
        <ele>247</ele>
        <time>2021-10-19T10:44:40Z</time>
      </trkpt>
      <trkpt lat="45.84838" lon="4.63174">
        <ele>254</ele>
        <time>2021-10-19T10:45:01Z</time>
      </trkpt>
      <trkpt lat="45.84954" lon="4.63209">
        <ele>259</ele>
        <time>2021-10-19T10:45:29Z</time>
      </trkpt>
      <trkpt lat="45.85254" lon="4.63172">
        <ele>268</ele>
        <time>2021-10-19T10:46:39Z</time>
      </trkpt>
      <trkpt lat="45.85267" lon="4.63203">
        <ele>269</ele>
        <time>2021-10-19T10:46:45Z</time>
      </trkpt>
      <trkpt lat="45.85317" lon="4.63197">
        <ele>272</ele>
        <time>2021-10-19T10:46:57Z</time>
      </trkpt>
      <trkpt lat="45.85379" lon="4.63134">
        <ele>275</ele>
        <time>2021-10-19T10:47:15Z</time>
      </trkpt>
      <trkpt lat="45.85642" lon="4.63275">
        <ele>268</ele>
        <time>2021-10-19T10:48:20Z</time>
      </trkpt>
      <trkpt lat="45.85696" lon="4.63366">
        <ele>268</ele>
        <time>2021-10-19T10:48:40Z</time>
      </trkpt>
      <trkpt lat="45.85849" lon="4.63469">
        <ele>280</ele>
        <time>2021-10-19T10:49:19Z</time>
      </trkpt>
      <trkpt lat="45.85943" lon="4.63479">
        <ele>278</ele>
        <time>2021-10-19T10:49:41Z</time>
      </trkpt>
      <trkpt lat="45.86131" lon="4.63089">
        <ele>295</ele>
        <time>2021-10-19T10:50:58Z</time>
      </trkpt>
      <trkpt lat="45.85992" lon="4.62963">
        <ele>284</ele>
        <time>2021-10-19T10:51:37Z</time>
      </trkpt>
      <trkpt lat="45.85952" lon="4.62886">
        <ele>279</ele>
        <time>2021-10-19T10:51:52Z</time>
      </trkpt>
      <trkpt lat="45.85941" lon="4.62736">
        <ele>286</ele>
        <time>2021-10-19T10:52:17Z</time>
      </trkpt>
      <trkpt lat="45.8599" lon="4.62441">
        <ele>303</ele>
        <time>2021-10-19T10:53:06Z</time>
      </trkpt>
      <trkpt lat="45.86011" lon="4.62171">
        <ele>309</ele>
        <time>2021-10-19T10:53:50Z</time>
      </trkpt>
      <trkpt lat="45.86103" lon="4.62232">
        <ele>316</ele>
        <time>2021-10-19T10:54:14Z</time>
      </trkpt>
      <trkpt lat="45.86165" lon="4.6232">
        <ele>310</ele>
        <time>2021-10-19T10:54:34Z</time>
      </trkpt>
      <trkpt lat="45.86152" lon="4.62362">
        <ele>308</ele>
        <time>2021-10-19T10:54:42Z</time>
      </trkpt>
      <trkpt lat="45.8621" lon="4.624">
        <ele>303</ele>
        <time>2021-10-19T10:54:57Z</time>
      </trkpt>
      <trkpt lat="45.8623" lon="4.62331">
        <ele>305</ele>
        <time>2021-10-19T10:55:09Z</time>
      </trkpt>
      <trkpt lat="45.86287" lon="4.62218">
        <ele>308</ele>
        <time>2021-10-19T10:55:32Z</time>
      </trkpt>
      <trkpt lat="45.8622" lon="4.62144">
        <ele>317</ele>
        <time>2021-10-19T10:55:51Z</time>
      </trkpt>
      <trkpt lat="45.86332" lon="4.62106">
        <ele>315</ele>
        <time>2021-10-19T10:56:18Z</time>
      </trkpt>
      <trkpt lat="45.86401" lon="4.62044">
        <ele>318</ele>
        <time>2021-10-19T10:56:37Z</time>
      </trkpt>
      <trkpt lat="45.86294" lon="4.61894">
        <ele>327</ele>
        <time>2021-10-19T10:57:12Z</time>
      </trkpt>
      <trkpt lat="45.8632" lon="4.61799">
        <ele>326</ele>
        <time>2021-10-19T10:57:29Z</time>
      </trkpt>
      <trkpt lat="45.86269" lon="4.61674">
        <ele>324</ele>
        <time>2021-10-19T10:57:52Z</time>
      </trkpt>
      <trkpt lat="45.86332" lon="4.6173">
        <ele>324</ele>
        <time>2021-10-19T10:58:10Z</time>
      </trkpt>
      <trkpt lat="45.86414" lon="4.61757">
        <ele>323</ele>
        <time>2021-10-19T10:58:29Z</time>
      </trkpt>
      <trkpt lat="45.86512" lon="4.61909">
        <ele>318</ele>
        <time>2021-10-19T10:59:03Z</time>
      </trkpt>
      <trkpt lat="45.86626" lon="4.61954">
        <ele>314</ele>
        <time>2021-10-19T10:59:30Z</time>
      </trkpt>
      <trkpt lat="45.86636" lon="4.6212">
        <ele>314</ele>
        <time>2021-10-19T10:59:58Z</time>
      </trkpt>
      <trkpt lat="45.8654" lon="4.62391">
        <ele>306</ele>
        <time>2021-10-19T11:00:47Z</time>
      </trkpt>
      <trkpt lat="45.86521" lon="4.62528">
        <ele>301</ele>
        <time>2021-10-19T11:01:10Z</time>
      </trkpt>
      <trkpt lat="45.8649" lon="4.62616">
        <ele>295</ele>
        <time>2021-10-19T11:01:26Z</time>
      </trkpt>
      <trkpt lat="45.86575" lon="4.62787">
        <ele>294</ele>
        <time>2021-10-19T11:02:00Z</time>
      </trkpt>
      <trkpt lat="45.86696" lon="4.62947">
        <ele>298</ele>
        <time>2021-10-19T11:02:38Z</time>
      </trkpt>
      <trkpt lat="45.86689" lon="4.6307">
        <ele>293</ele>
        <time>2021-10-19T11:02:58Z</time>
      </trkpt>
      <trkpt lat="45.86761" lon="4.63118">
        <ele>298</ele>
        <time>2021-10-19T11:03:17Z</time>
      </trkpt>
      <trkpt lat="45.8684" lon="4.63029">
        <ele>312</ele>
        <time>2021-10-19T11:03:40Z</time>
      </trkpt>
      <trkpt lat="45.86936" lon="4.63018">
        <ele>321</ele>
        <time>2021-10-19T11:04:03Z</time>
      </trkpt>
      <trkpt lat="45.8697" lon="4.63106">
        <ele>319</ele>
        <time>2021-10-19T11:04:19Z</time>
      </trkpt>
      <trkpt lat="45.87001" lon="4.63135">
        <ele>319</ele>
        <time>2021-10-19T11:04:28Z</time>
      </trkpt>
      <trkpt lat="45.8702" lon="4.63182">
        <ele>322</ele>
        <time>2021-10-19T11:04:37Z</time>
      </trkpt>
      <trkpt lat="45.87125" lon="4.63238">
        <ele>330</ele>
        <time>2021-10-19T11:05:03Z</time>
      </trkpt>
      <trkpt lat="45.87118" lon="4.63133">
        <ele>333</ele>
        <time>2021-10-19T11:05:20Z</time>
      </trkpt>
      <trkpt lat="45.87137" lon="4.63065">
        <ele>335</ele>
        <time>2021-10-19T11:05:32Z</time>
      </trkpt>
      <trkpt lat="45.87264" lon="4.62978">
        <ele>334</ele>
        <time>2021-10-19T11:06:05Z</time>
      </trkpt>
      <trkpt lat="45.87317" lon="4.62988">
        <ele>333</ele>
        <time>2021-10-19T11:06:17Z</time>
      </trkpt>
      <trkpt lat="45.87361" lon="4.62956">
        <ele>324</ele>
        <time>2021-10-19T11:06:29Z</time>
      </trkpt>
      <trkpt lat="45.87514" lon="4.62927">
        <ele>294</ele>
        <time>2021-10-19T11:07:05Z</time>
      </trkpt>
      <trkpt lat="45.87634" lon="4.62942">
        <ele>276</ele>
        <time>2021-10-19T11:07:33Z</time>
      </trkpt>
      <trkpt lat="45.87683" lon="4.62745">
        <ele>274</ele>
        <time>2021-10-19T11:08:07Z</time>
      </trkpt>
      <trkpt lat="45.87769" lon="4.62493">
        <ele>286</ele>
        <time>2021-10-19T11:08:53Z</time>
      </trkpt>
      <trkpt lat="45.87677" lon="4.62408">
        <ele>298</ele>
        <time>2021-10-19T11:09:18Z</time>
      </trkpt>
      <trkpt lat="45.8754" lon="4.62376">
        <ele>308</ele>
        <time>2021-10-19T11:09:51Z</time>
      </trkpt>
      <trkpt lat="45.87496" lon="4.62309">
        <ele>316</ele>
        <time>2021-10-19T11:10:06Z</time>
      </trkpt>
      <trkpt lat="45.875" lon="4.62243">
        <ele>323</ele>
        <time>2021-10-19T11:10:16Z</time>
      </trkpt>
      <trkpt lat="45.87585" lon="4.62085">
        <ele>347</ele>
        <time>2021-10-19T11:10:49Z</time>
      </trkpt>
      <trkpt lat="45.87583" lon="4.61936">
        <ele>360</ele>
        <time>2021-10-19T11:11:13Z</time>
      </trkpt>
      <trkpt lat="45.87476" lon="4.61768">
        <ele>364</ele>
        <time>2021-10-19T11:11:50Z</time>
      </trkpt>
      <trkpt lat="45.87327" lon="4.61792">
        <ele>367</ele>
        <time>2021-10-19T11:12:25Z</time>
      </trkpt>
      <trkpt lat="45.87229" lon="4.61727">
        <ele>359</ele>
        <time>2021-10-19T11:12:50Z</time>
      </trkpt>
      <trkpt lat="45.87232" lon="4.61686">
        <ele>359</ele>
        <time>2021-10-19T11:12:57Z</time>
      </trkpt>
      <trkpt lat="45.87165" lon="4.6161">
        <ele>355</ele>
        <time>2021-10-19T11:13:17Z</time>
      </trkpt>
      <trkpt lat="45.87006" lon="4.61523">
        <ele>357</ele>
        <time>2021-10-19T11:13:57Z</time>
      </trkpt>
      <trkpt lat="45.87148" lon="4.61416">
        <ele>363</ele>
        <time>2021-10-19T11:14:34Z</time>
      </trkpt>
      <trkpt lat="45.87183" lon="4.61187">
        <ele>376</ele>
        <time>2021-10-19T11:15:12Z</time>
      </trkpt>
      <trkpt lat="45.87143" lon="4.61155">
        <ele>379</ele>
        <time>2021-10-19T11:15:23Z</time>
      </trkpt>
      <trkpt lat="45.87009" lon="4.61193">
        <ele>378</ele>
        <time>2021-10-19T11:15:55Z</time>
      </trkpt>
      <trkpt lat="45.86927" lon="4.61173">
        <ele>375</ele>
        <time>2021-10-19T11:16:14Z</time>
      </trkpt>
      <trkpt lat="45.87054" lon="4.60889">
        <ele>390</ele>
        <time>2021-10-19T11:17:09Z</time>
      </trkpt>
      <trkpt lat="45.86986" lon="4.60825">
        <ele>391</ele>
        <time>2021-10-19T11:17:28Z</time>
      </trkpt>
      <trkpt lat="45.86956" lon="4.60789">
        <ele>386</ele>
        <time>2021-10-19T11:17:37Z</time>
      </trkpt>
      <trkpt lat="45.86944" lon="4.60724">
        <ele>383</ele>
        <time>2021-10-19T11:17:48Z</time>
      </trkpt>
      <trkpt lat="45.86924" lon="4.60646">
        <ele>378</ele>
        <time>2021-10-19T11:18:02Z</time>
      </trkpt>
      <trkpt lat="45.8692" lon="4.60564">
        <ele>376</ele>
        <time>2021-10-19T11:18:15Z</time>
      </trkpt>
      <trkpt lat="45.86867" lon="4.60472">
        <ele>368</ele>
        <time>2021-10-19T11:18:34Z</time>
      </trkpt>
      <trkpt lat="45.86775" lon="4.60498">
        <ele>367</ele>
        <time>2021-10-19T11:18:56Z</time>
      </trkpt>
      <trkpt lat="45.8678" lon="4.60361">
        <ele>367</ele>
        <time>2021-10-19T11:19:19Z</time>
      </trkpt>
      <trkpt lat="45.86759" lon="4.6019">
        <ele>368</ele>
        <time>2021-10-19T11:19:47Z</time>
      </trkpt>
      <trkpt lat="45.86709" lon="4.60017">
        <ele>368</ele>
        <time>2021-10-19T11:20:17Z</time>
      </trkpt>
      <trkpt lat="45.86679" lon="4.59818">
        <ele>356</ele>
        <time>2021-10-19T11:20:50Z</time>
      </trkpt>
      <trkpt lat="45.86676" lon="4.59778">
        <ele>355</ele>
        <time>2021-10-19T09:19:24Z</time>
      </trkpt>
      <trkpt lat="45.86676" lon="4.59778">
        <ele>355</ele>
        <time>2021-10-19T09:19:24Z</time>
      </trkpt>
      <trkpt lat="45.86815" lon="4.59329">
        <ele>357</ele>
        <time>2021-10-19T09:20:44Z</time>
      </trkpt>
      <trkpt lat="45.86794" lon="4.59056">
        <ele>363</ele>
        <time>2021-10-19T09:21:29Z</time>
      </trkpt>
      <trkpt lat="45.86891" lon="4.58619">
        <ele>373</ele>
        <time>2021-10-19T09:22:43Z</time>
      </trkpt>
      <trkpt lat="45.86926" lon="4.5863">
        <ele>374</ele>
        <time>2021-10-19T09:22:52Z</time>
      </trkpt>
      <trkpt lat="45.86996" lon="4.58546">
        <ele>373</ele>
        <time>2021-10-19T09:23:13Z</time>
      </trkpt>
      <trkpt lat="45.87053" lon="4.58487">
        <ele>378</ele>
        <time>2021-10-19T09:23:29Z</time>
      </trkpt>
      <trkpt lat="45.86917" lon="4.58298">
        <ele>383</ele>
        <time>2021-10-19T09:24:13Z</time>
      </trkpt>
      <trkpt lat="45.86936" lon="4.58278">
        <ele>387</ele>
        <time>2021-10-19T09:24:19Z</time>
      </trkpt>
      <trkpt lat="45.86919" lon="4.58241">
        <ele>388</ele>
        <time>2021-10-19T09:24:26Z</time>
      </trkpt>
      <trkpt lat="45.86952" lon="4.58204">
        <ele>397</ele>
        <time>2021-10-19T09:24:36Z</time>
      </trkpt>
      <trkpt lat="45.86988" lon="4.58231">
        <ele>400</ele>
        <time>2021-10-19T09:24:45Z</time>
      </trkpt>
      <trkpt lat="45.87034" lon="4.58272">
        <ele>401</ele>
        <time>2021-10-19T09:24:58Z</time>
      </trkpt>
      <trkpt lat="45.87056" lon="4.58279">
        <ele>403</ele>
        <time>2021-10-19T09:25:03Z</time>
      </trkpt>
      <trkpt lat="45.87067" lon="4.58278">
        <ele>405</ele>
        <time>2021-10-19T09:25:06Z</time>
      </trkpt>
      <trkpt lat="45.87068" lon="4.58269">
        <ele>406</ele>
        <time>2021-10-19T09:25:07Z</time>
      </trkpt>
      <trkpt lat="45.87036" lon="4.58206">
        <ele>409</ele>
        <time>2021-10-19T09:25:20Z</time>
      </trkpt>
      <trkpt lat="45.87027" lon="4.58138">
        <ele>412</ele>
        <time>2021-10-19T09:25:31Z</time>
      </trkpt>
      <trkpt lat="45.87082" lon="4.5814">
        <ele>418</ele>
        <time>2021-10-19T09:25:44Z</time>
      </trkpt>
      <trkpt lat="45.87098" lon="4.58128">
        <ele>418</ele>
        <time>2021-10-19T09:25:48Z</time>
      </trkpt>
      <trkpt lat="45.87111" lon="4.58134">
        <ele>418</ele>
        <time>2021-10-19T09:25:52Z</time>
      </trkpt>
      <trkpt lat="45.87126" lon="4.58126">
        <ele>418</ele>
        <time>2021-10-19T09:25:55Z</time>
      </trkpt>
      <trkpt lat="45.87148" lon="4.5808">
        <ele>415</ele>
        <time>2021-10-19T09:26:04Z</time>
      </trkpt>
      <trkpt lat="45.87174" lon="4.58003">
        <ele>403</ele>
        <time>2021-10-19T09:26:18Z</time>
      </trkpt>
      <trkpt lat="45.87123" lon="4.57956">
        <ele>399</ele>
        <time>2021-10-19T09:26:32Z</time>
      </trkpt>
      <trkpt lat="45.87023" lon="4.5789">
        <ele>388</ele>
        <time>2021-10-19T09:26:58Z</time>
      </trkpt>
      <trkpt lat="45.86973" lon="4.57839">
        <ele>379</ele>
        <time>2021-10-19T09:27:12Z</time>
      </trkpt>
      <trkpt lat="45.86943" lon="4.57801">
        <ele>375</ele>
        <time>2021-10-19T09:27:22Z</time>
      </trkpt>
      <trkpt lat="45.86845" lon="4.57818">
        <ele>372</ele>
        <time>2021-10-19T09:27:45Z</time>
      </trkpt>
      <trkpt lat="45.8673" lon="4.57797">
        <ele>368</ele>
        <time>2021-10-19T09:28:12Z</time>
      </trkpt>
      <trkpt lat="45.86705" lon="4.57727">
        <ele>368</ele>
        <time>2021-10-19T09:28:25Z</time>
      </trkpt>
      <trkpt lat="45.86553" lon="4.5772">
        <ele>370</ele>
        <time>2021-10-19T09:29:00Z</time>
      </trkpt>
      <trkpt lat="45.8641" lon="4.57733">
        <ele>372</ele>
        <time>2021-10-19T09:29:34Z</time>
      </trkpt>
      <trkpt lat="45.86313" lon="4.57607">
        <ele>373</ele>
        <time>2021-10-19T09:30:04Z</time>
      </trkpt>
      <trkpt lat="45.86202" lon="4.57431">
        <ele>372</ele>
        <time>2021-10-19T09:30:43Z</time>
      </trkpt>
      <trkpt lat="45.86148" lon="4.57512">
        <ele>370</ele>
        <time>2021-10-19T09:31:01Z</time>
      </trkpt>
      <trkpt lat="45.86089" lon="4.57619">
        <ele>366</ele>
        <time>2021-10-19T09:31:23Z</time>
      </trkpt>
      <trkpt lat="45.86036" lon="4.5773">
        <ele>362</ele>
        <time>2021-10-19T09:31:45Z</time>
      </trkpt>
      <trkpt lat="45.86013" lon="4.578">
        <ele>361</ele>
        <time>2021-10-19T09:31:58Z</time>
      </trkpt>
      <trkpt lat="45.85978" lon="4.57836">
        <ele>360</ele>
        <time>2021-10-19T09:32:08Z</time>
      </trkpt>
      <trkpt lat="45.85902" lon="4.57924">
        <ele>361</ele>
        <time>2021-10-19T09:32:31Z</time>
      </trkpt>
      <trkpt lat="45.85822" lon="4.57961">
        <ele>363</ele>
        <time>2021-10-19T09:32:50Z</time>
      </trkpt>
      <trkpt lat="45.85695" lon="4.5797">
        <ele>364</ele>
        <time>2021-10-19T09:33:20Z</time>
      </trkpt>
      <trkpt lat="45.85634" lon="4.57967">
        <ele>363</ele>
        <time>2021-10-19T09:33:34Z</time>
      </trkpt>
      <trkpt lat="45.8557" lon="4.57933">
        <ele>358</ele>
        <time>2021-10-19T09:33:50Z</time>
      </trkpt>
      <trkpt lat="45.85488" lon="4.57915">
        <ele>356</ele>
        <time>2021-10-19T09:34:09Z</time>
      </trkpt>
      <trkpt lat="45.85434" lon="4.57921">
        <ele>354</ele>
        <time>2021-10-19T09:34:22Z</time>
      </trkpt>
      <trkpt lat="45.8538" lon="4.5794">
        <ele>352</ele>
        <time>2021-10-19T09:34:35Z</time>
      </trkpt>
      <trkpt lat="45.85303" lon="4.5798">
        <ele>348</ele>
        <time>2021-10-19T09:34:54Z</time>
      </trkpt>
      <trkpt lat="45.85262" lon="4.57988">
        <ele>346</ele>
        <time>2021-10-19T09:35:04Z</time>
      </trkpt>
      <trkpt lat="45.85199" lon="4.5783">
        <ele>344</ele>
        <time>2021-10-19T09:35:34Z</time>
      </trkpt>
      <trkpt lat="45.85199" lon="4.57762">
        <ele>342</ele>
        <time>2021-10-19T09:35:45Z</time>
      </trkpt>
      <trkpt lat="45.85218" lon="4.57729">
        <ele>339</ele>
        <time>2021-10-19T09:35:52Z</time>
      </trkpt>
      <trkpt lat="45.85233" lon="4.57709">
        <ele>336</ele>
        <time>2021-10-19T09:35:56Z</time>
      </trkpt>
      <trkpt lat="45.85281" lon="4.57712">
        <ele>336</ele>
        <time>2021-10-19T09:36:08Z</time>
      </trkpt>
      <trkpt lat="45.85304" lon="4.57697">
        <ele>335</ele>
        <time>2021-10-19T09:36:13Z</time>
      </trkpt>
      <trkpt lat="45.8531" lon="4.5767">
        <ele>334</ele>
        <time>2021-10-19T09:36:18Z</time>
      </trkpt>
      <trkpt lat="45.85282" lon="4.57635">
        <ele>331</ele>
        <time>2021-10-19T09:36:27Z</time>
      </trkpt>
      <trkpt lat="45.85196" lon="4.57461">
        <ele>318</ele>
        <time>2021-10-19T09:37:01Z</time>
      </trkpt>
      <trkpt lat="45.85169" lon="4.57343">
        <ele>312</ele>
        <time>2021-10-19T09:37:22Z</time>
      </trkpt>
      <trkpt lat="45.85165" lon="4.57284">
        <ele>310</ele>
        <time>2021-10-19T09:37:31Z</time>
      </trkpt>
      <trkpt lat="45.85129" lon="4.57188">
        <ele>310</ele>
        <time>2021-10-19T09:37:49Z</time>
      </trkpt>
      <trkpt lat="45.85122" lon="4.57083">
        <ele>318</ele>
        <time>2021-10-19T09:38:06Z</time>
      </trkpt>
      <trkpt lat="45.85134" lon="4.5706">
        <ele>320</ele>
        <time>2021-10-19T09:38:11Z</time>
      </trkpt>
      <trkpt lat="45.85171" lon="4.57078">
        <ele>324</ele>
        <time>2021-10-19T09:38:20Z</time>
      </trkpt>
      <trkpt lat="45.85231" lon="4.57063">
        <ele>327</ele>
        <time>2021-10-19T09:38:34Z</time>
      </trkpt>
      <trkpt lat="45.8547" lon="4.57185">
        <ele>334</ele>
        <time>2021-10-19T09:39:33Z</time>
      </trkpt>
      <trkpt lat="45.85495" lon="4.57111">
        <ele>337</ele>
        <time>2021-10-19T09:39:47Z</time>
      </trkpt>
      <trkpt lat="45.85508" lon="4.56953">
        <ele>338</ele>
        <time>2021-10-19T09:40:13Z</time>
      </trkpt>
      <trkpt lat="45.85602" lon="4.56475">
        <ele>329</ele>
        <time>2021-10-19T09:41:33Z</time>
      </trkpt>
      <trkpt lat="45.85651" lon="4.56328">
        <ele>322</ele>
        <time>2021-10-19T09:42:00Z</time>
      </trkpt>
      <trkpt lat="45.85631" lon="4.56116">
        <ele>312</ele>
        <time>2021-10-19T09:42:35Z</time>
      </trkpt>
      <trkpt lat="45.85657" lon="4.55944">
        <ele>302</ele>
        <time>2021-10-19T09:43:03Z</time>
      </trkpt>
      <trkpt lat="45.8557" lon="4.55961">
        <ele>304</ele>
        <time>2021-10-19T09:43:24Z</time>
      </trkpt>
      <trkpt lat="45.85518" lon="4.55867">
        <ele>298</ele>
        <time>2021-10-19T09:43:43Z</time>
      </trkpt>
      <trkpt lat="45.85421" lon="4.55805">
        <ele>309</ele>
        <time>2021-10-19T09:44:08Z</time>
      </trkpt>
      <trkpt lat="45.85374" lon="4.55773">
        <ele>309</ele>
        <time>2021-10-19T09:44:20Z</time>
      </trkpt>
      <trkpt lat="45.8534" lon="4.55768">
        <ele>314</ele>
        <time>2021-10-19T09:44:28Z</time>
      </trkpt>
      <trkpt lat="45.85311" lon="4.55779">
        <ele>313</ele>
        <time>2021-10-19T09:44:35Z</time>
      </trkpt>
      <trkpt lat="45.85205" lon="4.55966">
        <ele>318</ele>
        <time>2021-10-19T09:45:15Z</time>
      </trkpt>
      <trkpt lat="45.85192" lon="4.56017">
        <ele>319</ele>
        <time>2021-10-19T09:45:23Z</time>
      </trkpt>
      <trkpt lat="45.85179" lon="4.56185">
        <ele>326</ele>
        <time>2021-10-19T09:45:51Z</time>
      </trkpt>
      <trkpt lat="45.85074" lon="4.56183">
        <ele>319</ele>
        <time>2021-10-19T09:46:15Z</time>
      </trkpt>
      <trkpt lat="45.84916" lon="4.56221">
        <ele>304</ele>
        <time>2021-10-19T09:46:53Z</time>
      </trkpt>
      <trkpt lat="45.84804" lon="4.56284">
        <ele>284</ele>
        <time>2021-10-19T09:47:21Z</time>
      </trkpt>
      <trkpt lat="45.84747" lon="4.56272">
        <ele>276</ele>
        <time>2021-10-19T09:47:34Z</time>
      </trkpt>
      <trkpt lat="45.84739" lon="4.56316">
        <ele>271</ele>
        <time>2021-10-19T09:47:42Z</time>
      </trkpt>
      <trkpt lat="45.84777" lon="4.56413">
        <ele>271</ele>
        <time>2021-10-19T09:48:00Z</time>
      </trkpt>
      <trkpt lat="45.84738" lon="4.5636">
        <ele>267</ele>
        <time>2021-10-19T09:48:12Z</time>
      </trkpt>
      <trkpt lat="45.847" lon="4.5633">
        <ele>263</ele>
        <time>2021-10-19T09:48:23Z</time>
      </trkpt>
      <trkpt lat="45.84679" lon="4.56293">
        <ele>262</ele>
        <time>2021-10-19T09:48:30Z</time>
      </trkpt>
      <trkpt lat="45.84668" lon="4.56252">
        <ele>261</ele>
        <time>2021-10-19T09:48:37Z</time>
      </trkpt>
      <trkpt lat="45.84651" lon="4.56239">
        <ele>263</ele>
        <time>2021-10-19T09:48:42Z</time>
      </trkpt>
      <trkpt lat="45.84621" lon="4.56239">
        <ele>265</ele>
        <time>2021-10-19T09:48:49Z</time>
      </trkpt>
      <trkpt lat="45.84595" lon="4.56202">
        <ele>270</ele>
        <time>2021-10-19T09:48:58Z</time>
      </trkpt>
      <trkpt lat="45.84602" lon="4.56126">
        <ele>276</ele>
        <time>2021-10-19T09:49:10Z</time>
      </trkpt>
      <trkpt lat="45.84566" lon="4.56029">
        <ele>287</ele>
        <time>2021-10-19T09:49:28Z</time>
      </trkpt>
      <trkpt lat="45.84473" lon="4.55873">
        <ele>306</ele>
        <time>2021-10-19T09:50:01Z</time>
      </trkpt>
      <trkpt lat="45.84489" lon="4.55862">
        <ele>306</ele>
        <time>2021-10-19T09:50:05Z</time>
      </trkpt>
      <trkpt lat="45.84529" lon="4.55858">
        <ele>308</ele>
        <time>2021-10-19T09:50:15Z</time>
      </trkpt>
      <trkpt lat="45.84563" lon="4.55793">
        <ele>318</ele>
        <time>2021-10-19T09:50:28Z</time>
      </trkpt>
      <trkpt lat="45.84608" lon="4.55802">
        <ele>318</ele>
        <time>2021-10-19T09:50:39Z</time>
      </trkpt>
      <trkpt lat="45.84632" lon="4.55733">
        <ele>321</ele>
        <time>2021-10-19T09:50:51Z</time>
      </trkpt>
      <trkpt lat="45.84602" lon="4.55566">
        <ele>334</ele>
        <time>2021-10-19T09:51:19Z</time>
      </trkpt>
      <trkpt lat="45.84611" lon="4.55424">
        <ele>341</ele>
        <time>2021-10-19T09:51:42Z</time>
      </trkpt>
      <trkpt lat="45.84552" lon="4.55395">
        <ele>340</ele>
        <time>2021-10-19T09:51:57Z</time>
      </trkpt>
      <trkpt lat="45.8442" lon="4.55209">
        <ele>331</ele>
        <time>2021-10-19T09:52:40Z</time>
      </trkpt>
      <trkpt lat="45.84397" lon="4.55231">
        <ele>332</ele>
        <time>2021-10-19T09:52:47Z</time>
      </trkpt>
      <trkpt lat="45.8436" lon="4.55373">
        <ele>335</ele>
        <time>2021-10-19T09:53:11Z</time>
      </trkpt>
      <trkpt lat="45.84207" lon="4.55514">
        <ele>349</ele>
        <time>2021-10-19T09:53:54Z</time>
      </trkpt>
      <trkpt lat="45.8402" lon="4.55333">
        <ele>367</ele>
        <time>2021-10-19T09:54:46Z</time>
      </trkpt>
      <trkpt lat="45.83977" lon="4.55252">
        <ele>371</ele>
        <time>2021-10-19T09:55:03Z</time>
      </trkpt>
      <trkpt lat="45.83961" lon="4.5519">
        <ele>367</ele>
        <time>2021-10-19T09:55:14Z</time>
      </trkpt>
      <trkpt lat="45.83972" lon="4.54975">
        <ele>363</ele>
        <time>2021-10-19T09:55:49Z</time>
      </trkpt>
      <trkpt lat="45.83929" lon="4.54966">
        <ele>363</ele>
        <time>2021-10-19T09:55:59Z</time>
      </trkpt>
      <trkpt lat="45.83853" lon="4.54981">
        <ele>367</ele>
        <time>2021-10-19T09:56:17Z</time>
      </trkpt>
      <trkpt lat="45.83752" lon="4.54929">
        <ele>379</ele>
        <time>2021-10-19T09:56:42Z</time>
      </trkpt>
      <trkpt lat="45.8372" lon="4.54931">
        <ele>379</ele>
        <time>2021-10-19T09:56:49Z</time>
      </trkpt>
      <trkpt lat="45.83704" lon="4.54853">
        <ele>380</ele>
        <time>2021-10-19T09:57:03Z</time>
      </trkpt>
      <trkpt lat="45.83735" lon="4.54622">
        <ele>381</ele>
        <time>2021-10-19T09:57:41Z</time>
      </trkpt>
      <trkpt lat="45.83678" lon="4.54586">
        <ele>381</ele>
        <time>2021-10-19T09:57:55Z</time>
      </trkpt>
      <trkpt lat="45.8363" lon="4.54394">
        <ele>392</ele>
        <time>2021-10-19T09:58:29Z</time>
      </trkpt>
      <trkpt lat="45.83593" lon="4.54424">
        <ele>391</ele>
        <time>2021-10-19T09:58:39Z</time>
      </trkpt>
      <trkpt lat="45.8357" lon="4.54548">
        <ele>393</ele>
        <time>2021-10-19T09:58:59Z</time>
      </trkpt>
      <trkpt lat="45.83517" lon="4.54652">
        <ele>404</ele>
        <time>2021-10-19T09:59:20Z</time>
      </trkpt>
      <trkpt lat="45.83394" lon="4.54858">
        <ele>422</ele>
        <time>2021-10-19T10:00:05Z</time>
      </trkpt>
      <trkpt lat="45.83328" lon="4.54888">
        <ele>436</ele>
        <time>2021-10-19T10:00:21Z</time>
      </trkpt>
      <trkpt lat="45.83367" lon="4.55115">
        <ele>423</ele>
        <time>2021-10-19T10:00:59Z</time>
      </trkpt>
      <trkpt lat="45.83342" lon="4.55145">
        <ele>428</ele>
        <time>2021-10-19T10:01:06Z</time>
      </trkpt>
      <trkpt lat="45.832" lon="4.55192">
        <ele>444</ele>
        <time>2021-10-19T10:01:40Z</time>
      </trkpt>
      <trkpt lat="45.83052" lon="4.5529">
        <ele>453</ele>
        <time>2021-10-19T10:02:18Z</time>
      </trkpt>
      <trkpt lat="45.83067" lon="4.55442">
        <ele>454</ele>
        <time>2021-10-19T10:02:43Z</time>
      </trkpt>
      <trkpt lat="45.83146" lon="4.55665">
        <ele>450</ele>
        <time>2021-10-19T10:03:24Z</time>
      </trkpt>
      <trkpt lat="45.83221" lon="4.55902">
        <ele>458</ele>
        <time>2021-10-19T10:04:07Z</time>
      </trkpt>
      <trkpt lat="45.83252" lon="4.56117">
        <ele>460</ele>
        <time>2021-10-19T10:04:42Z</time>
      </trkpt>
      <trkpt lat="45.83219" lon="4.56201">
        <ele>461</ele>
        <time>2021-10-19T10:04:58Z</time>
      </trkpt>
      <trkpt lat="45.83143" lon="4.56299">
        <ele>456</ele>
        <time>2021-10-19T10:05:22Z</time>
      </trkpt>
      <trkpt lat="45.83113" lon="4.56357">
        <ele>452</ele>
        <time>2021-10-19T10:05:34Z</time>
      </trkpt>
      <trkpt lat="45.83102" lon="4.56494">
        <ele>446</ele>
        <time>2021-10-19T10:05:56Z</time>
      </trkpt>
      <trkpt lat="45.83147" lon="4.56413">
        <ele>441</ele>
        <time>2021-10-19T10:06:13Z</time>
      </trkpt>
      <trkpt lat="45.83249" lon="4.56351">
        <ele>436</ele>
        <time>2021-10-19T10:06:39Z</time>
      </trkpt>
      <trkpt lat="45.83363" lon="4.56308">
        <ele>428</ele>
        <time>2021-10-19T10:07:06Z</time>
      </trkpt>
      <trkpt lat="45.83388" lon="4.56274">
        <ele>427</ele>
        <time>2021-10-19T10:07:14Z</time>
      </trkpt>
      <trkpt lat="45.83422" lon="4.56211">
        <ele>425</ele>
        <time>2021-10-19T10:07:27Z</time>
      </trkpt>
      <trkpt lat="45.83476" lon="4.56279">
        <ele>415</ele>
        <time>2021-10-19T10:07:44Z</time>
      </trkpt>
      <trkpt lat="45.83427" lon="4.56506">
        <ele>393</ele>
        <time>2021-10-19T10:08:23Z</time>
      </trkpt>
      <trkpt lat="45.83355" lon="4.56574">
        <ele>390</ele>
        <time>2021-10-19T10:08:43Z</time>
      </trkpt>
      <trkpt lat="45.83347" lon="4.5677">
        <ele>376</ele>
        <time>2021-10-19T10:09:15Z</time>
      </trkpt>
      <trkpt lat="45.83317" lon="4.56922">
        <ele>372</ele>
        <time>2021-10-19T10:09:40Z</time>
      </trkpt>
      <trkpt lat="45.83212" lon="4.57058">
        <ele>356</ele>
        <time>2021-10-19T10:10:13Z</time>
      </trkpt>
      <trkpt lat="45.83051" lon="4.57087">
        <ele>347</ele>
        <time>2021-10-19T10:10:51Z</time>
      </trkpt>
      <trkpt lat="45.83041" lon="4.57643">
        <ele>309</ele>
        <time>2021-10-19T10:12:22Z</time>
      </trkpt>
      <trkpt lat="45.83263" lon="4.5748">
        <ele>312</ele>
        <time>2021-10-19T10:13:20Z</time>
      </trkpt>
      <trkpt lat="45.83365" lon="4.57466">
        <ele>312</ele>
        <time>2021-10-19T10:13:44Z</time>
      </trkpt>
      <trkpt lat="45.83398" lon="4.57481">
        <ele>311</ele>
        <time>2021-10-19T10:13:52Z</time>
      </trkpt>
      <trkpt lat="45.83511" lon="4.57471">
        <ele>309</ele>
        <time>2021-10-19T10:14:19Z</time>
      </trkpt>
      <trkpt lat="45.8355" lon="4.57686">
        <ele>304</ele>
        <time>2021-10-19T10:14:55Z</time>
      </trkpt>
      <trkpt lat="45.83673" lon="4.57833">
        <ele>309</ele>
        <time>2021-10-19T10:15:32Z</time>
      </trkpt>
      <trkpt lat="45.83746" lon="4.57938">
        <ele>301</ele>
        <time>2021-10-19T10:15:56Z</time>
      </trkpt>
      <trkpt lat="45.83825" lon="4.57978">
        <ele>294</ele>
        <time>2021-10-19T10:16:16Z</time>
      </trkpt>
      <trkpt lat="45.83977" lon="4.58299">
        <ele>278</ele>
        <time>2021-10-19T10:17:19Z</time>
      </trkpt>
      <trkpt lat="45.83968" lon="4.58384">
        <ele>277</ele>
        <time>2021-10-19T10:17:33Z</time>
      </trkpt>
      <trkpt lat="45.83976" lon="4.58533">
        <ele>264</ele>
        <time>2021-10-19T10:17:57Z</time>
      </trkpt>
      <trkpt lat="45.83953" lon="4.5863">
        <ele>260</ele>
        <time>2021-10-19T10:18:14Z</time>
      </trkpt>
      <trkpt lat="45.8403" lon="4.58668">
        <ele>253</ele>
        <time>2021-10-19T10:18:33Z</time>
      </trkpt>
      <trkpt lat="45.84101" lon="4.58615">
        <ele>242</ele>
        <time>2021-10-19T10:18:52Z</time>
      </trkpt>
      <trkpt lat="45.84303" lon="4.58578">
        <ele>244</ele>
        <time>2021-10-19T10:19:39Z</time>
      </trkpt>
      <trkpt lat="45.84396" lon="4.58628">
        <ele>254</ele>
        <time>2021-10-19T10:20:02Z</time>
      </trkpt>
      <trkpt lat="45.84468" lon="4.58754">
        <ele>261</ele>
        <time>2021-10-19T10:20:29Z</time>
      </trkpt>
      <trkpt lat="45.84596" lon="4.58756">
        <ele>264</ele>
        <time>2021-10-19T10:20:59Z</time>
      </trkpt>
      <trkpt lat="45.8461" lon="4.5878">
        <ele>264</ele>
        <time>2021-10-19T10:21:04Z</time>
      </trkpt>
      <trkpt lat="45.84629" lon="4.5875">
        <ele>266</ele>
        <time>2021-10-19T10:21:10Z</time>
      </trkpt>
      <trkpt lat="45.8472" lon="4.58627">
        <ele>275</ele>
        <time>2021-10-19T10:21:40Z</time>
      </trkpt>
      <trkpt lat="45.84919" lon="4.58394">
        <ele>310</ele>
        <time>2021-10-19T10:22:40Z</time>
      </trkpt>
      <trkpt lat="45.84968" lon="4.58363">
        <ele>317</ele>
        <time>2021-10-19T10:22:52Z</time>
      </trkpt>
      <trkpt lat="45.84986" lon="4.58289">
        <ele>325</ele>
        <time>2021-10-19T10:23:05Z</time>
      </trkpt>
      <trkpt lat="45.85012" lon="4.58235">
        <ele>330</ele>
        <time>2021-10-19T10:23:16Z</time>
      </trkpt>
      <trkpt lat="45.85103" lon="4.58307">
        <ele>333</ele>
        <time>2021-10-19T10:23:40Z</time>
      </trkpt>
      <trkpt lat="45.85146" lon="4.58364">
        <ele>333</ele>
        <time>2021-10-19T10:23:53Z</time>
      </trkpt>
      <trkpt lat="45.85272" lon="4.58385">
        <ele>345</ele>
        <time>2021-10-19T10:24:23Z</time>
      </trkpt>
      <trkpt lat="45.8536" lon="4.58625">
        <ele>338</ele>
        <time>2021-10-19T10:25:07Z</time>
      </trkpt>
      <trkpt lat="45.85436" lon="4.58767">
        <ele>328</ele>
        <time>2021-10-19T10:25:36Z</time>
      </trkpt>
      <trkpt lat="45.85421" lon="4.58909">
        <ele>304</ele>
        <time>2021-10-19T10:26:00Z</time>
      </trkpt>
      <trkpt lat="45.85381" lon="4.5904">
        <ele>295</ele>
        <time>2021-10-19T10:26:23Z</time>
      </trkpt>
      <trkpt lat="45.85214" lon="4.59263">
        <ele>274</ele>
        <time>2021-10-19T10:27:16Z</time>
      </trkpt>
      <trkpt lat="45.85162" lon="4.59329">
        <ele>272</ele>
        <time>2021-10-19T10:27:32Z</time>
      </trkpt>
      <trkpt lat="45.85146" lon="4.59399">
        <ele>273</ele>
        <time>2021-10-19T10:27:44Z</time>
      </trkpt>
      <trkpt lat="45.85277" lon="4.59483">
        <ele>280</ele>
        <time>2021-10-19T10:28:18Z</time>
      </trkpt>
      <trkpt lat="45.8533" lon="4.59489">
        <ele>282</ele>
        <time>2021-10-19T10:28:30Z</time>
      </trkpt>
      <trkpt lat="45.85432" lon="4.59554">
        <ele>286</ele>
        <time>2021-10-19T10:28:56Z</time>
      </trkpt>
      <trkpt lat="45.85484" lon="4.59586">
        <ele>286</ele>
        <time>2021-10-19T10:29:10Z</time>
      </trkpt>
      <trkpt lat="45.85488" lon="4.59612">
        <ele>288</ele>
        <time>2021-10-19T10:29:14Z</time>
      </trkpt>
      <trkpt lat="45.85521" lon="4.59681">
        <ele>293</ele>
        <time>2021-10-19T10:29:28Z</time>
      </trkpt>
      <trkpt lat="45.85512" lon="4.59809">
        <ele>300</ele>
        <time>2021-10-19T10:29:48Z</time>
      </trkpt>
      <trkpt lat="45.85583" lon="4.5983">
        <ele>303</ele>
        <time>2021-10-19T10:30:05Z</time>
      </trkpt>
      <trkpt lat="45.85654" lon="4.59865">
        <ele>306</ele>
        <time>2021-10-19T10:30:23Z</time>
      </trkpt>
      <trkpt lat="45.8563" lon="4.6002">
        <ele>306</ele>
        <time>2021-10-19T10:30:49Z</time>
      </trkpt>
      <trkpt lat="45.85596" lon="4.60049">
        <ele>306</ele>
        <time>2021-10-19T10:30:58Z</time>
      </trkpt>
      <trkpt lat="45.85624" lon="4.60162">
        <ele>311</ele>
        <time>2021-10-19T10:31:18Z</time>
      </trkpt>
      <trkpt lat="45.85605" lon="4.60222">
        <ele>312</ele>
        <time>2021-10-19T10:31:28Z</time>
      </trkpt>
      <trkpt lat="45.85539" lon="4.60238">
        <ele>309</ele>
        <time>2021-10-19T10:31:44Z</time>
      </trkpt>
      <trkpt lat="45.85499" lon="4.60271">
        <ele>307</ele>
        <time>2021-10-19T10:31:55Z</time>
      </trkpt>
      <trkpt lat="45.85409" lon="4.60683">
        <ele>305</ele>
        <time>2021-10-19T10:33:05Z</time>
      </trkpt>
      <trkpt lat="45.85333" lon="4.60859">
        <ele>307</ele>
        <time>2021-10-19T10:33:39Z</time>
      </trkpt>
      <trkpt lat="45.85281" lon="4.61047">
        <ele>306</ele>
        <time>2021-10-19T10:34:11Z</time>
      </trkpt>
      <trkpt lat="45.85213" lon="4.61094">
        <ele>299</ele>
        <time>2021-10-19T10:34:29Z</time>
      </trkpt>
    </trkseg>
  </trk>
</gpx>